Terminal Aerodrome Forecast
Issued by NWS

Home | Current Version | Previous Version | Graphics & Text | Print | Product List | Glossary On
Versions: 1 2 3 4 5 6 7 8 9 10 11 12 13 14 15 16 17
000
FTUS43 KMPX 272325
TAFAXN
TAF
KAXN 272325Z 2800/2824 18009KT P6SM VCSH FEW050 BKN200
     FM280130 19010KT P6SM VCTS SCT050CB BKN120
      TEMPO 2802/2803 2SM TSRA OVC050CB
     FM280400 33010G16KT P6SM SKC
     FM280900 33011G17KT P6SM BKN035
     FM281400 34015G22KT P6SM SCT030 BKN050=

USA.gov is the U.S. government's official web portal to all federal, state and local government web resources and services.